sensor_id;sensor_type;location;lat;lon;timestamp;temperature;humidity
2577;DHT22;1298;51.252;6.802;2023-04-01T00:01:47;10.30;99.90
2577;DHT22;1298;51.252;6.802;2023-04-01T00:04:34;10.30;99.90
2577;DHT22;1298;51.252;6.802;2023-04-01T00:07:19;10.30;99.90
2577;DHT22;1298;51.252;6.802;2023-04-01T00:10:05;10.30;99.90
2577;DHT22;1298;51.252;6.802;2023-04-01T00:12:50;10.30;99.90
2577;DHT22;1298;51.252;6.802;2023-04-01T00:15:35;10.30;99.90
2577;DHT22;1298;51.252;6.802;2023-04-01T00:18:21;10.20;99.90
2577;DHT22;1298;51.252;6.802;2023-04-01T00:21:07;10.20;99.90
2577;DHT22;1298;51.252;6.802;2023-04-01T00:23:52;10.20;99.90
2577;DHT22;1298;51.252;6.802;2023-04-01T00:26:38;10.20;99.90
2577;DHT22;1298;51.252;6.802;2023-04-01T00:29:23;10.10;99.90
2577;DHT22;1298;51.252;6.802;2023-04-01T00:32:13;10.10;99.90
2577;DHT22;1298;51.252;6.802;2023-04-01T00:34:59;10.20;99.90
2577;DHT22;1298;51.252;6.802;2023-04-01T00:37:45;10.20;99.90
2577;DHT22;1298;51.252;6.802;2023-04-01T00:40:32;10.20;99.90
2577;DHT22;1298;51.252;6.802;2023-04-01T00:43:19;10.20;99.90
2577;DHT22;1298;51.252;6.802;2023-04-01T00:46:05;10.20;99.90
2577;DHT22;1298;51.252;6.802;2023-04-01T00:48:51;10.30;99.90
2577;DHT22;1298;51.252;6.802;2023-04-01T00:51:37;10.40;99.90
2577;DHT22;1298;51.252;6.802;2023-04-01T00:54:24;10.30;99.90
2577;DHT22;1298;51.252;6.802;2023-04-01T00:57:12;10.30;99.90
2577;DHT22;1298;51.252;6.802;2023-04-01T00:59:58;10.30;99.90
2577;DHT22;1298;51.252;6.802;2023-04-01T01:02:44;10.30;99.90
2577;DHT22;1298;51.252;6.802;2023-04-01T01:05:32;10.20;99.90
2577;DHT22;1298;51.252;6.802;2023-04-01T01:08:20;10.30;99.90
2577;DHT22;1298;51.252;6.802;2023-04-01T01:11:10;10.20;99.90
2577;DHT22;1298;51.252;6.802;2023-04-01T01:13:57;10.20;99.90
2577;DHT22;1298;51.252;6.802;2023-04-01T01:16:43;10.30;99.90
2577;DHT22;1298;51.252;6.802;2023-04-01T01:22:45;10.20;99.90
2577;DHT22;1298;51.252;6.802;2023-04-01T01:25:39;10.20;99.90
2577;DHT22;1298;51.252;6.802;2023-04-01T01:28:31;10.20;99.90
2577;DHT22;1298;51.252;6.802;2023-04-01T01:31:22;10.30;99.90
2577;DHT22;1298;51.252;6.802;2023-04-01T01:34:11;10.30;99.90
2577;DHT22;1298;51.252;6.802;2023-04-01T01:37:02;10.30;99.90
2577;DHT22;1298;51.252;6.802;2023-04-01T01:39:51;10.30;99.90
2577;DHT22;1298;51.252;6.802;2023-04-01T01:42:37;10.30;99.90
2577;DHT22;1298;51.252;6.802;2023-04-01T01:45:23;10.20;99.90
2577;DHT22;1298;51.252;6.802;2023-04-01T01:48:11;10.10;99.90
2577;DHT22;1298;51.252;6.802;2023-04-01T01:50:56;10.10;99.90
2577;DHT22;1298;51.252;6.802;2023-04-01T01:53:43;10.10;99.90
2577;DHT22;1298;51.252;6.802;2023-04-01T01:56:28;10.00;99.90
2577;DHT22;1298;51.252;6.802;2023-04-01T01:59:14;10.00;99.90
2577;DHT22;1298;51.252;6.802;2023-04-01T02:02:00;10.00;99.90
2577;DHT22;1298;51.252;6.802;2023-04-01T02:04:51;10.00;99.90
2577;DHT22;1298;51.252;6.802;2023-04-01T02:07:37;10.00;99.90
2577;DHT22;1298;51.252;6.802;2023-04-01T02:10:25;10.00;99.90
2577;DHT22;1298;51.252;6.802;2023-04-01T02:13:13;10.00;99.90
2577;DHT22;1298;51.252;6.802;2023-04-01T02:16:00;10.00;99.90
2577;DHT22;1298;51.252;6.802;2023-04-01T02:18:46;10.00;99.90
2577;DHT22;1298;51.252;6.802;2023-04-01T02:21:33;10.00;99.90
2577;DHT22;1298;51.252;6.802;2023-04-01T02:24:18;9.90;99.90
2577;DHT22;1298;51.252;6.802;2023-04-01T02:27:08;9.90;99.90
2577;DHT22;1298;51.252;6.802;2023-04-01T02:29:54;9.90;99.90
2577;DHT22;1298;51.252;6.802;2023-04-01T02:32:39;9.90;99.90
2577;DHT22;1298;51.252;6.802;2023-04-01T02:35:24;9.80;99.90
2577;DHT22;1298;51.252;6.802;2023-04-01T02:38:10;9.80;99.90
2577;DHT22;1298;51.252;6.802;2023-04-01T02:40:57;9.80;99.90
2577;DHT22;1298;51.252;6.802;2023-04-01T02:43:44;9.80;99.90
2577;DHT22;1298;51.252;6.802;2023-04-01T02:46:29;9.80;99.90
2577;DHT22;1298;51.252;6.802;2023-04-01T02:49:14;9.70;99.90
2577;DHT22;1298;51.252;6.802;2023-04-01T02:52:00;9.70;99.90
2577;DHT22;1298;51.252;6.802;2023-04-01T02:54:44;9.70;99.90
2577;DHT22;1298;51.252;6.802;2023-04-01T02:57:30;9.60;99.90
2577;DHT22;1298;51.252;6.802;2023-04-01T03:00:17;9.60;99.90
2577;DHT22;1298;51.252;6.802;2023-04-01T03:03:02;9.60;99.90
2577;DHT22;1298;51.252;6.802;2023-04-01T03:05:48;9.60;99.90
2577;DHT22;1298;51.252;6.802;2023-04-01T03:08:33;9.60;99.90
2577;DHT22;1298;51.252;6.802;2023-04-01T03:11:18;9.60;99.90
2577;DHT22;1298;51.252;6.802;2023-04-01T03:14:05;9.70;99.90
2577;DHT22;1298;51.252;6.802;2023-04-01T03:16:52;9.70;99.90
2577;DHT22;1298;51.252;6.802;2023-04-01T03:19:37;9.70;99.90
2577;DHT22;1298;51.252;6.802;2023-04-01T03:22:22;9.70;99.90
2577;DHT22;1298;51.252;6.802;2023-04-01T03:25:07;9.70;99.90
2577;DHT22;1298;51.252;6.802;2023-04-01T03:27:53;9.70;99.90
2577;DHT22;1298;51.252;6.802;2023-04-01T03:30:38;9.70;99.90
2577;DHT22;1298;51.252;6.802;2023-04-01T03:33:25;9.70;99.90
2577;DHT22;1298;51.252;6.802;2023-04-01T03:36:10;9.70;99.90
2577;DHT22;1298;51.252;6.802;2023-04-01T03:38:56;9.70;99.90
2577;DHT22;1298;51.252;6.802;2023-04-01T03:41:41;9.70;99.90
2577;DHT22;1298;51.252;6.802;2023-04-01T03:44:29;9.70;99.90
2577;DHT22;1298;51.252;6.802;2023-04-01T03:47:15;9.70;99.90
2577;DHT22;1298;51.252;6.802;2023-04-01T03:50:01;9.70;99.90
2577;DHT22;1298;51.252;6.802;2023-04-01T03:52:46;9.70;99.90
2577;DHT22;1298;51.252;6.802;2023-04-01T03:55:31;9.70;99.90
2577;DHT22;1298;51.252;6.802;2023-04-01T03:58:16;9.70;99.90
2577;DHT22;1298;51.252;6.802;2023-04-01T04:01:02;9.70;99.90
2577;DHT22;1298;51.252;6.802;2023-04-01T04:03:47;9.80;99.90
2577;DHT22;1298;51.252;6.802;2023-04-01T04:06:34;9.70;99.90
2577;DHT22;1298;51.252;6.802;2023-04-01T04:09:19;9.80;99.90
2577;DHT22;1298;51.252;6.802;2023-04-01T04:12:05;9.70;99.90
2577;DHT22;1298;51.252;6.802;2023-04-01T04:14:50;9.70;99.90
2577;DHT22;1298;51.252;6.802;2023-04-01T04:17:36;9.70;99.90
2577;DHT22;1298;51.252;6.802;2023-04-01T04:20:21;9.70;99.90
2577;DHT22;1298;51.252;6.802;2023-04-01T04:23:07;9.70;99.90
2577;DHT22;1298;51.252;6.802;2023-04-01T04:25:53;9.70;99.90
2577;DHT22;1298;51.252;6.802;2023-04-01T04:28:39;9.70;99.90
2577;DHT22;1298;51.252;6.802;2023-04-01T04:31:24;9.70;99.90
2577;DHT22;1298;51.252;6.802;2023-04-01T04:34:10;9.70;99.90
2577;DHT22;1298;51.252;6.802;2023-04-01T04:36:55;9.70;99.90
2577;DHT22;1298;51.252;6.802;2023-04-01T04:39:41;9.70;99.90
2577;DHT22;1298;51.252;6.802;2023-04-01T04:42:26;9.70;99.90
2577;DHT22;1298;51.252;6.802;2023-04-01T04:45:11;9.70;99.90
2577;DHT22;1298;51.252;6.802;2023-04-01T04:47:57;9.70;99.90
2577;DHT22;1298;51.252;6.802;2023-04-01T04:50:42;9.70;99.90
2577;DHT22;1298;51.252;6.802;2023-04-01T04:53:27;9.70;99.90
2577;DHT22;1298;51.252;6.802;2023-04-01T04:56:16;9.70;99.90
2577;DHT22;1298;51.252;6.802;2023-04-01T04:59:02;9.70;99.90
2577;DHT22;1298;51.252;6.802;2023-04-01T05:01:47;9.70;99.90
2577;DHT22;1298;51.252;6.802;2023-04-01T05:04:34;9.70;99.90
2577;DHT22;1298;51.252;6.802;2023-04-01T05:07:19;9.70;99.90
2577;DHT22;1298;51.252;6.802;2023-04-01T05:10:04;9.70;99.90
2577;DHT22;1298;51.252;6.802;2023-04-01T05:12:51;9.70;99.90
2577;DHT22;1298;51.252;6.802;2023-04-01T05:15:36;9.70;99.90
2577;DHT22;1298;51.252;6.802;2023-04-01T05:18:22;9.70;99.90
2577;DHT22;1298;51.252;6.802;2023-04-01T05:21:07;9.70;99.90
2577;DHT22;1298;51.252;6.802;2023-04-01T05:23:53;9.70;99.90
2577;DHT22;1298;51.252;6.802;2023-04-01T05:26:38;9.60;99.90
2577;DHT22;1298;51.252;6.802;2023-04-01T05:29:24;9.60;99.90
2577;DHT22;1298;51.252;6.802;2023-04-01T05:32:10;9.60;99.90
2577;DHT22;1298;51.252;6.802;2023-04-01T05:34:55;9.60;99.90
2577;DHT22;1298;51.252;6.802;2023-04-01T05:37:40;9.60;99.90
2577;DHT22;1298;51.252;6.802;2023-04-01T05:40:25;9.60;99.90
2577;DHT22;1298;51.252;6.802;2023-04-01T05:43:10;9.50;99.90
2577;DHT22;1298;51.252;6.802;2023-04-01T05:45:57;9.50;99.90
2577;DHT22;1298;51.252;6.802;2023-04-01T05:48:42;9.60;99.90
2577;DHT22;1298;51.252;6.802;2023-04-01T05:51:28;9.50;99.90
2577;DHT22;1298;51.252;6.802;2023-04-01T05:54:13;9.50;99.90
2577;DHT22;1298;51.252;6.802;2023-04-01T05:56:58;9.60;99.90
2577;DHT22;1298;51.252;6.802;2023-04-01T05:59:43;9.50;99.90
2577;DHT22;1298;51.252;6.802;2023-04-01T06:02:29;9.50;99.90
2577;DHT22;1298;51.252;6.802;2023-04-01T06:05:16;9.50;99.90
2577;DHT22;1298;51.252;6.802;2023-04-01T06:08:08;9.50;99.90
2577;DHT22;1298;51.252;6.802;2023-04-01T06:11:05;9.50;99.90
2577;DHT22;1298;51.252;6.802;2023-04-01T06:14:01;9.50;99.90
2577;DHT22;1298;51.252;6.802;2023-04-01T06:16:53;9.50;99.90
2577;DHT22;1298;51.252;6.802;2023-04-01T06:19:46;9.60;99.90
2577;DHT22;1298;51.252;6.802;2023-04-01T06:22:35;9.60;99.90
2577;DHT22;1298;51.252;6.802;2023-04-01T06:25:28;9.60;99.90
2577;DHT22;1298;51.252;6.802;2023-04-01T06:31:25;9.60;99.90
2577;DHT22;1298;51.252;6.802;2023-04-01T06:34:22;9.70;99.90
2577;DHT22;1298;51.252;6.802;2023-04-01T06:37:18;9.60;99.90
2577;DHT22;1298;51.252;6.802;2023-04-01T06:40:12;9.60;99.90
2577;DHT22;1298;51.252;6.802;2023-04-01T06:43:05;9.60;99.90
2577;DHT22;1298;51.252;6.802;2023-04-01T06:45:53;9.50;99.90
2577;DHT22;1298;51.252;6.802;2023-04-01T06:48:42;9.50;99.90
2577;DHT22;1298;51.252;6.802;2023-04-01T06:51:32;9.50;99.90
2577;DHT22;1298;51.252;6.802;2023-04-01T06:54:23;9.50;99.90
2577;DHT22;1298;51.252;6.802;2023-04-01T06:57:16;9.50;99.90
2577;DHT22;1298;51.252;6.802;2023-04-01T07:00:05;9.50;99.90
2577;DHT22;1298;51.252;6.802;2023-04-01T07:03:00;9.50;99.90
2577;DHT22;1298;51.252;6.802;2023-04-01T07:05:47;9.50;99.90
2577;DHT22;1298;51.252;6.802;2023-04-01T07:08:33;9.50;99.90
2577;DHT22;1298;51.252;6.802;2023-04-01T07:11:24;9.60;99.90
2577;DHT22;1298;51.252;6.802;2023-04-01T07:14:13;9.50;99.90
2577;DHT22;1298;51.252;6.802;2023-04-01T07:17:03;9.50;99.90
2577;DHT22;1298;51.252;6.802;2023-04-01T07:19:51;9.50;99.90
2577;DHT22;1298;51.252;6.802;2023-04-01T07:22:39;9.60;99.90
2577;DHT22;1298;51.252;6.802;2023-04-01T07:25:29;9.60;99.90
2577;DHT22;1298;51.252;6.802;2023-04-01T07:28:16;9.60;99.90
2577;DHT22;1298;51.252;6.802;2023-04-01T07:31:05;9.60;99.90
2577;DHT22;1298;51.252;6.802;2023-04-01T07:33:54;9.60;99.90
2577;DHT22;1298;51.252;6.802;2023-04-01T07:36:43;9.60;99.90
2577;DHT22;1298;51.252;6.802;2023-04-01T07:39:32;9.70;99.90
2577;DHT22;1298;51.252;6.802;2023-04-01T07:42:22;9.70;99.90
2577;DHT22;1298;51.252;6.802;2023-04-01T07:45:11;9.70;99.90
2577;DHT22;1298;51.252;6.802;2023-04-01T07:48:04;9.70;99.90
2577;DHT22;1298;51.252;6.802;2023-04-01T07:50:55;9.70;99.90
2577;DHT22;1298;51.252;6.802;2023-04-01T07:53:46;9.70;99.90
2577;DHT22;1298;51.252;6.802;2023-04-01T07:56:33;9.70;99.90
2577;DHT22;1298;51.252;6.802;2023-04-01T07:59:22;9.70;99.90
2577;DHT22;1298;51.252;6.802;2023-04-01T08:02:13;9.70;99.90
2577;DHT22;1298;51.252;6.802;2023-04-01T08:05:03;9.70;99.90
2577;DHT22;1298;51.252;6.802;2023-04-01T08:07:50;9.70;99.90
2577;DHT22;1298;51.252;6.802;2023-04-01T08:10:39;9.80;99.90
2577;DHT22;1298;51.252;6.802;2023-04-01T08:13:30;9.80;99.90
2577;DHT22;1298;51.252;6.802;2023-04-01T08:16:20;9.80;99.90
2577;DHT22;1298;51.252;6.802;2023-04-01T08:19:14;9.80;99.90
2577;DHT22;1298;51.252;6.802;2023-04-01T08:22:02;9.80;99.90
2577;DHT22;1298;51.252;6.802;2023-04-01T08:24:48;9.90;99.90
2577;DHT22;1298;51.252;6.802;2023-04-01T08:27:36;9.90;99.90
2577;DHT22;1298;51.252;6.802;2023-04-01T08:30:23;9.90;99.90
2577;DHT22;1298;51.252;6.802;2023-04-01T08:33:11;9.90;99.90
2577;DHT22;1298;51.252;6.802;2023-04-01T08:35:59;9.90;99.90
2577;DHT22;1298;51.252;6.802;2023-04-01T08:38:48;9.90;99.90
2577;DHT22;1298;51.252;6.802;2023-04-01T08:44:41;10.00;99.90
2577;DHT22;1298;51.252;6.802;2023-04-01T08:47:42;9.90;99.90
2577;DHT22;1298;51.252;6.802;2023-04-01T08:50:40;10.00;99.90
2577;DHT22;1298;51.252;6.802;2023-04-01T08:53:33;10.00;99.90
2577;DHT22;1298;51.252;6.802;2023-04-01T08:56:23;10.00;99.90
2577;DHT22;1298;51.252;6.802;2023-04-01T08:59:15;10.00;99.90
2577;DHT22;1298;51.252;6.802;2023-04-01T09:02:12;10.10;99.90
2577;DHT22;1298;51.252;6.802;2023-04-01T09:05:22;10.00;99.90
2577;DHT22;1298;51.252;6.802;2023-04-01T09:08:15;10.00;99.90
2577;DHT22;1298;51.252;6.802;2023-04-01T09:11:09;10.00;99.90
2577;DHT22;1298;51.252;6.802;2023-04-01T09:20:25;10.10;99.90
2577;DHT22;1298;51.252;6.802;2023-04-01T09:23:23;10.20;99.90
2577;DHT22;1298;51.252;6.802;2023-04-01T09:29:23;10.40;99.90
2577;DHT22;1298;51.252;6.802;2023-04-01T09:32:19;10.40;99.90
2577;DHT22;1298;51.252;6.802;2023-04-01T09:35:14;10.40;99.90
2577;DHT22;1298;51.252;6.802;2023-04-01T09:38:09;10.40;99.90
2577;DHT22;1298;51.252;6.802;2023-04-01T09:41:03;10.50;99.90
2577;DHT22;1298;51.252;6.802;2023-04-01T09:43:56;10.50;99.90
2577;DHT22;1298;51.252;6.802;2023-04-01T09:46:47;10.50;99.90
2577;DHT22;1298;51.252;6.802;2023-04-01T09:49:41;10.40;99.90
2577;DHT22;1298;51.252;6.802;2023-04-01T09:52:31;10.40;99.90
2577;DHT22;1298;51.252;6.802;2023-04-01T09:58:47;10.30;99.90
2577;DHT22;1298;51.252;6.802;2023-04-01T10:01:42;10.30;99.90
2577;DHT22;1298;51.252;6.802;2023-04-01T10:04:52;10.30;99.90
2577;DHT22;1298;51.252;6.802;2023-04-01T10:07:53;10.30;99.90
2577;DHT22;1298;51.252;6.802;2023-04-01T10:10:47;10.30;99.90
2577;DHT22;1298;51.252;6.802;2023-04-01T10:17:00;10.50;99.90
2577;DHT22;1298;51.252;6.802;2023-04-01T10:26:04;10.30;99.90
2577;DHT22;1298;51.252;6.802;2023-04-01T10:28:57;10.30;99.90
2577;DHT22;1298;51.252;6.802;2023-04-01T10:31:53;10.30;99.90
2577;DHT22;1298;51.252;6.802;2023-04-01T10:35:04;10.20;99.90
2577;DHT22;1298;51.252;6.802;2023-04-01T10:38:01;10.30;99.90
2577;DHT22;1298;51.252;6.802;2023-04-01T10:40:57;10.20;99.90
2577;DHT22;1298;51.252;6.802;2023-04-01T10:43:56;10.10;99.90
2577;DHT22;1298;51.252;6.802;2023-04-01T10:46:58;10.10;99.90
2577;DHT22;1298;51.252;6.802;2023-04-01T10:53:13;10.20;99.90
2577;DHT22;1298;51.252;6.802;2023-04-01T11:08:14;10.20;99.90
2577;DHT22;1298;51.252;6.802;2023-04-01T11:11:28;10.10;99.90
2577;DHT22;1298;51.252;6.802;2023-04-01T11:14:41;10.10;99.90
2577;DHT22;1298;51.252;6.802;2023-04-01T11:23:47;10.40;99.90
2577;DHT22;1298;51.252;6.802;2023-04-01T11:26:38;10.40;99.90
2577;DHT22;1298;51.252;6.802;2023-04-01T11:29:38;10.40;99.90
2577;DHT22;1298;51.252;6.802;2023-04-01T11:32:29;10.40;99.90
2577;DHT22;1298;51.252;6.802;2023-04-01T11:35:28;10.40;99.90
2577;DHT22;1298;51.252;6.802;2023-04-01T11:38:24;10.50;99.90
2577;DHT22;1298;51.252;6.802;2023-04-01T11:41:15;10.40;99.90
2577;DHT22;1298;51.252;6.802;2023-04-01T11:44:14;10.50;99.90
2577;DHT22;1298;51.252;6.802;2023-04-01T11:47:09;10.50;99.90
2577;DHT22;1298;51.252;6.802;2023-04-01T11:49:59;10.50;99.90
2577;DHT22;1298;51.252;6.802;2023-04-01T11:53:01;10.60;99.90
2577;DHT22;1298;51.252;6.802;2023-04-01T11:55:50;10.60;99.90
2577;DHT22;1298;51.252;6.802;2023-04-01T11:59:04;10.60;99.90
2577;DHT22;1298;51.252;6.802;2023-04-01T12:01:55;10.60;99.90
2577;DHT22;1298;51.252;6.802;2023-04-01T12:04:53;10.70;99.90
2577;DHT22;1298;51.252;6.802;2023-04-01T12:07:55;10.60;99.90
2577;DHT22;1298;51.252;6.802;2023-04-01T12:10:44;10.70;99.90
2577;DHT22;1298;51.252;6.802;2023-04-01T12:13:32;10.70;99.90
2577;DHT22;1298;51.252;6.802;2023-04-01T12:16:23;10.70;99.90
2577;DHT22;1298;51.252;6.802;2023-04-01T12:19:13;10.70;99.90
2577;DHT22;1298;51.252;6.802;2023-04-01T12:22:08;10.80;99.90
2577;DHT22;1298;51.252;6.802;2023-04-01T12:24:59;10.80;99.90
2577;DHT22;1298;51.252;6.802;2023-04-01T12:27:59;10.90;99.90
2577;DHT22;1298;51.252;6.802;2023-04-01T12:30:50;11.00;99.90
2577;DHT22;1298;51.252;6.802;2023-04-01T12:36:44;11.30;99.90
2577;DHT22;1298;51.252;6.802;2023-04-01T12:39:44;11.30;99.90
2577;DHT22;1298;51.252;6.802;2023-04-01T12:42:38;11.30;99.90
2577;DHT22;1298;51.252;6.802;2023-04-01T12:45:30;11.20;99.90
2577;DHT22;1298;51.252;6.802;2023-04-01T12:48:22;11.20;99.90
2577;DHT22;1298;51.252;6.802;2023-04-01T12:51:17;11.30;99.90
2577;DHT22;1298;51.252;6.802;2023-04-01T12:57:19;11.30;99.90
2577;DHT22;1298;51.252;6.802;2023-04-01T13:00:12;11.40;99.90
2577;DHT22;1298;51.252;6.802;2023-04-01T13:03:09;11.50;99.90
2577;DHT22;1298;51.252;6.802;2023-04-01T13:09:07;11.40;99.90
2577;DHT22;1298;51.252;6.802;2023-04-01T13:12:16;11.30;99.90
2577;DHT22;1298;51.252;6.802;2023-04-01T13:18:20;11.20;99.90
2577;DHT22;1298;51.252;6.802;2023-04-01T13:21:08;11.20;99.90
2577;DHT22;1298;51.252;6.802;2023-04-01T13:23:56;11.10;99.90
2577;DHT22;1298;51.252;6.802;2023-04-01T13:26:46;11.10;99.90
2577;DHT22;1298;51.252;6.802;2023-04-01T13:29:34;11.10;99.90
2577;DHT22;1298;51.252;6.802;2023-04-01T13:32:27;11.10;99.90
2577;DHT22;1298;51.252;6.802;2023-04-01T13:35:25;11.00;99.90
2577;DHT22;1298;51.252;6.802;2023-04-01T13:38:20;10.90;99.90
2577;DHT22;1298;51.252;6.802;2023-04-01T13:41:11;10.90;99.90
2577;DHT22;1298;51.252;6.802;2023-04-01T13:44:00;10.90;99.90
2577;DHT22;1298;51.252;6.802;2023-04-01T13:47:03;10.90;99.90
2577;DHT22;1298;51.252;6.802;2023-04-01T13:49:55;10.90;99.90
2577;DHT22;1298;51.252;6.802;2023-04-01T13:52:52;10.90;99.90
2577;DHT22;1298;51.252;6.802;2023-04-01T13:55:49;10.90;99.90
2577;DHT22;1298;51.252;6.802;2023-04-01T13:58:38;10.90;99.90
2577;DHT22;1298;51.252;6.802;2023-04-01T14:01:31;10.90;99.90
2577;DHT22;1298;51.252;6.802;2023-04-01T14:04:23;10.90;99.90
2577;DHT22;1298;51.252;6.802;2023-04-01T14:07:15;10.90;99.90
2577;DHT22;1298;51.252;6.802;2023-04-01T14:10:07;11.00;99.90
2577;DHT22;1298;51.252;6.802;2023-04-01T14:12:59;11.10;99.90
2577;DHT22;1298;51.252;6.802;2023-04-01T14:15:52;11.10;99.90
2577;DHT22;1298;51.252;6.802;2023-04-01T14:18:53;11.20;99.90
2577;DHT22;1298;51.252;6.802;2023-04-01T14:21:41;11.30;99.90
2577;DHT22;1298;51.252;6.802;2023-04-01T14:24:32;11.40;99.90
2577;DHT22;1298;51.252;6.802;2023-04-01T14:27:27;11.30;99.90
2577;DHT22;1298;51.252;6.802;2023-04-01T14:30:20;11.30;99.90
2577;DHT22;1298;51.252;6.802;2023-04-01T14:33:16;11.30;99.90
2577;DHT22;1298;51.252;6.802;2023-04-01T14:36:16;11.30;99.90
2577;DHT22;1298;51.252;6.802;2023-04-01T14:39:10;11.20;99.90
2577;DHT22;1298;51.252;6.802;2023-04-01T14:42:02;11.20;99.90
2577;DHT22;1298;51.252;6.802;2023-04-01T14:44:53;11.20;99.90
2577;DHT22;1298;51.252;6.802;2023-04-01T14:47:43;11.10;99.90
2577;DHT22;1298;51.252;6.802;2023-04-01T14:50:40;11.10;99.90
2577;DHT22;1298;51.252;6.802;2023-04-01T14:53:27;11.10;99.90
2577;DHT22;1298;51.252;6.802;2023-04-01T14:56:12;11.00;99.90
2577;DHT22;1298;51.252;6.802;2023-04-01T14:59:26;11.00;99.90
2577;DHT22;1298;51.252;6.802;2023-04-01T15:02:17;10.90;99.90
2577;DHT22;1298;51.252;6.802;2023-04-01T15:05:10;11.00;99.90
2577;DHT22;1298;51.252;6.802;2023-04-01T15:08:00;10.90;99.90
2577;DHT22;1298;51.252;6.802;2023-04-01T15:10:49;10.90;99.90
2577;DHT22;1298;51.252;6.802;2023-04-01T15:13:41;10.90;99.90
2577;DHT22;1298;51.252;6.802;2023-04-01T15:16:31;10.80;99.90
2577;DHT22;1298;51.252;6.802;2023-04-01T15:19:23;10.80;99.90
2577;DHT22;1298;51.252;6.802;2023-04-01T15:22:16;10.70;99.90
2577;DHT22;1298;51.252;6.802;2023-04-01T15:25:05;10.60;99.90
2577;DHT22;1298;51.252;6.802;2023-04-01T15:27:55;10.70;99.90
2577;DHT22;1298;51.252;6.802;2023-04-01T15:30:47;10.60;99.90
2577;DHT22;1298;51.252;6.802;2023-04-01T15:33:45;10.60;99.90
2577;DHT22;1298;51.252;6.802;2023-04-01T15:36:38;10.60;99.90
2577;DHT22;1298;51.252;6.802;2023-04-01T15:39:29;10.50;99.90
2577;DHT22;1298;51.252;6.802;2023-04-01T15:42:22;10.50;99.90
2577;DHT22;1298;51.252;6.802;2023-04-01T15:45:13;10.50;99.90
2577;DHT22;1298;51.252;6.802;2023-04-01T15:48:02;10.50;99.90
2577;DHT22;1298;51.252;6.802;2023-04-01T15:51:01;10.40;99.90
2577;DHT22;1298;51.252;6.802;2023-04-01T15:56:52;10.30;99.90
2577;DHT22;1298;51.252;6.802;2023-04-01T16:02:44;10.30;99.90
2577;DHT22;1298;51.252;6.802;2023-04-01T16:05:34;10.30;99.90
2577;DHT22;1298;51.252;6.802;2023-04-01T16:08:33;10.30;99.90
2577;DHT22;1298;51.252;6.802;2023-04-01T16:11:23;10.30;99.90
2577;DHT22;1298;51.252;6.802;2023-04-01T16:14:14;10.30;99.90
2577;DHT22;1298;51.252;6.802;2023-04-01T16:17:05;10.30;99.90
2577;DHT22;1298;51.252;6.802;2023-04-01T16:19:53;10.30;99.90
2577;DHT22;1298;51.252;6.802;2023-04-01T16:22:44;10.30;99.90
2577;DHT22;1298;51.252;6.802;2023-04-01T16:25:32;10.30;99.90
2577;DHT22;1298;51.252;6.802;2023-04-01T16:28:19;10.30;99.90
2577;DHT22;1298;51.252;6.802;2023-04-01T16:31:08;10.30;99.90
2577;DHT22;1298;51.252;6.802;2023-04-01T16:33:55;10.30;99.90
2577;DHT22;1298;51.252;6.802;2023-04-01T16:36:44;10.30;99.90
2577;DHT22;1298;51.252;6.802;2023-04-01T16:39:32;10.20;99.90
2577;DHT22;1298;51.252;6.802;2023-04-01T16:42:25;10.30;99.90
2577;DHT22;1298;51.252;6.802;2023-04-01T16:45:17;10.20;99.90
2577;DHT22;1298;51.252;6.802;2023-04-01T16:48:10;10.20;99.90
2577;DHT22;1298;51.252;6.802;2023-04-01T16:50:58;10.20;99.90
2577;DHT22;1298;51.252;6.802;2023-04-01T16:53:45;10.20;99.90
2577;DHT22;1298;51.252;6.802;2023-04-01T16:56:36;10.20;99.90
2577;DHT22;1298;51.252;6.802;2023-04-01T16:59:24;10.10;99.90
2577;DHT22;1298;51.252;6.802;2023-04-01T17:02:12;10.20;99.90
2577;DHT22;1298;51.252;6.802;2023-04-01T17:05:04;10.10;99.90
2577;DHT22;1298;51.252;6.802;2023-04-01T17:07:54;10.10;99.90
2577;DHT22;1298;51.252;6.802;2023-04-01T17:10:45;10.10;99.90
2577;DHT22;1298;51.252;6.802;2023-04-01T17:13:39;10.10;99.90
2577;DHT22;1298;51.252;6.802;2023-04-01T17:16:40;10.10;99.90
2577;DHT22;1298;51.252;6.802;2023-04-01T17:19:42;10.20;99.90
2577;DHT22;1298;51.252;6.802;2023-04-01T17:22:33;10.20;99.90
2577;DHT22;1298;51.252;6.802;2023-04-01T17:25:24;10.10;99.90
2577;DHT22;1298;51.252;6.802;2023-04-01T17:28:17;10.10;99.90
2577;DHT22;1298;51.252;6.802;2023-04-01T17:31:07;10.10;99.90
2577;DHT22;1298;51.252;6.802;2023-04-01T17:33:59;10.10;99.90
2577;DHT22;1298;51.252;6.802;2023-04-01T17:36:59;10.00;99.90
2577;DHT22;1298;51.252;6.802;2023-04-01T17:39:51;10.00;99.90
2577;DHT22;1298;51.252;6.802;2023-04-01T17:42:40;10.00;99.90
2577;DHT22;1298;51.252;6.802;2023-04-01T17:45:28;10.00;99.90
2577;DHT22;1298;51.252;6.802;2023-04-01T17:48:17;10.10;99.90
2577;DHT22;1298;51.252;6.802;2023-04-01T17:54:11;10.00;99.90
2577;DHT22;1298;51.252;6.802;2023-04-01T17:57:06;10.00;99.90
2577;DHT22;1298;51.252;6.802;2023-04-01T17:59:55;10.00;99.90
2577;DHT22;1298;51.252;6.802;2023-04-01T18:02:47;10.00;99.90
2577;DHT22;1298;51.252;6.802;2023-04-01T18:05:37;9.90;99.90
2577;DHT22;1298;51.252;6.802;2023-04-01T18:08:26;9.90;99.90
2577;DHT22;1298;51.252;6.802;2023-04-01T18:11:19;9.90;99.90
2577;DHT22;1298;51.252;6.802;2023-04-01T18:14:21;9.90;99.90
2577;DHT22;1298;51.252;6.802;2023-04-01T18:17:12;9.90;99.90
2577;DHT22;1298;51.252;6.802;2023-04-01T18:20:07;9.80;99.90
2577;DHT22;1298;51.252;6.802;2023-04-01T18:22:57;9.90;99.90
2577;DHT22;1298;51.252;6.802;2023-04-01T18:25:44;9.80;99.90
2577;DHT22;1298;51.252;6.802;2023-04-01T18:28:33;9.80;99.90
2577;DHT22;1298;51.252;6.802;2023-04-01T18:31:22;9.80;99.90
2577;DHT22;1298;51.252;6.802;2023-04-01T18:34:11;9.80;99.90
2577;DHT22;1298;51.252;6.802;2023-04-01T18:36:58;9.80;99.90
2577;DHT22;1298;51.252;6.802;2023-04-01T18:39:46;9.80;99.90
2577;DHT22;1298;51.252;6.802;2023-04-01T18:42:38;9.80;99.90
2577;DHT22;1298;51.252;6.802;2023-04-01T18:45:27;9.80;99.90
2577;DHT22;1298;51.252;6.802;2023-04-01T18:48:28;9.70;99.90
2577;DHT22;1298;51.252;6.802;2023-04-01T18:51:14;9.70;99.90
2577;DHT22;1298;51.252;6.802;2023-04-01T18:54:02;9.80;99.90
2577;DHT22;1298;51.252;6.802;2023-04-01T18:56:50;9.70;99.90
2577;DHT22;1298;51.252;6.802;2023-04-01T18:59:39;9.70;99.90
2577;DHT22;1298;51.252;6.802;2023-04-01T19:02:27;9.70;99.90
2577;DHT22;1298;51.252;6.802;2023-04-01T19:05:16;9.60;99.90
2577;DHT22;1298;51.252;6.802;2023-04-01T19:08:20;9.60;99.90
2577;DHT22;1298;51.252;6.802;2023-04-01T19:11:10;9.60;99.90
2577;DHT22;1298;51.252;6.802;2023-04-01T19:14:02;9.60;99.90
2577;DHT22;1298;51.252;6.802;2023-04-01T19:16:52;9.60;99.90
2577;DHT22;1298;51.252;6.802;2023-04-01T19:19:47;9.60;99.90
2577;DHT22;1298;51.252;6.802;2023-04-01T19:22:42;9.60;99.90
2577;DHT22;1298;51.252;6.802;2023-04-01T19:25:33;9.60;99.90
2577;DHT22;1298;51.252;6.802;2023-04-01T19:28:22;9.60;99.90
2577;DHT22;1298;51.252;6.802;2023-04-01T19:31:14;9.60;99.90
2577;DHT22;1298;51.252;6.802;2023-04-01T19:34:03;9.60;99.90
2577;DHT22;1298;51.252;6.802;2023-04-01T19:36:53;9.60;99.90
2577;DHT22;1298;51.252;6.802;2023-04-01T19:39:45;9.60;99.90
2577;DHT22;1298;51.252;6.802;2023-04-01T19:42:35;9.60;99.90
2577;DHT22;1298;51.252;6.802;2023-04-01T19:45:26;9.50;99.90
2577;DHT22;1298;51.252;6.802;2023-04-01T19:48:22;9.50;99.90
2577;DHT22;1298;51.252;6.802;2023-04-01T19:51:18;9.60;99.90
2577;DHT22;1298;51.252;6.802;2023-04-01T19:54:11;9.60;99.90
2577;DHT22;1298;51.252;6.802;2023-04-01T19:57:03;9.50;99.90